Time;durP1;ratioP1;P1;durP2;ratioP2;P2;SDS_P1;SDS_P2;PMS_P1;PMS_P2;Temp;Humidity;BMP_temperature;BMP_pressure;BME280_temperature;BME280_humidity;BME280_pressure;Samples;Min_cycle;Max_cycle;Signal;HPM_P1;HPM_P2
2023/04/09 00:05:02;;;;;;;24.15;16.15;;;;;;;5.55;66.93;98573.94;12813085;23;21115;31
2023/04/09 00:10:24;;;;;;;23.92;16.58;;;;;;;5.58;66.97;98581.16;12634303;23;20002;-84
2023/04/09 00:22:00;;;;;;;28.55;17.67;;;;;;;5.67;66.58;98574.41;12798114;23;20020;-83
2023/04/09 00:27:22;;;;;;;26.08;16.63;;;;;;;5.66;66.73;98559.06;12735095;23;20005;-84
2023/04/09 00:32:53;;;;;;;23.63;15.70;;;;;;;5.70;66.62;98573.34;12809899;23;20103;-83
2023/04/09 00:38:15;;;;;;;25.05;15.75;;;;;;;5.75;66.38;98575.22;12726035;23;20016;-78
2023/04/09 00:43:37;;;;;;;24.30;16.05;;;;;;;5.74;66.53;98580.00;12755324;23;20005;-84
2023/04/09 01:01:21;;;;;;;25.55;17.20;;;;;;;5.76;66.26;98571.16;12798612;23;20049;-83
2023/04/09 01:07:10;;;;;;;28.13;16.95;;;;;;;5.83;66.20;98578.78;12778574;23;20016;-82
2023/04/09 01:12:47;;;;;;;27.00;16.77;;;;;;;5.86;66.14;98577.69;12819165;23;20004;-81
2023/04/09 01:18:22;;;;;;;27.02;16.65;;;;;;;5.85;66.16;98567.91;12820809;23;20023;-83
2023/04/09 01:23:51;;;;;;;28.63;17.08;;;;;;;5.91;66.13;98576.84;12779889;23;20017;-82
2023/04/09 01:29:14;;;;;;;27.45;17.20;;;;;;;5.87;65.95;98576.41;12819782;23;20009;-83
2023/04/09 01:34:37;;;;;;;22.52;15.73;;;;;;;5.92;65.98;98572.03;12819352;23;20005;-84
2023/04/09 01:40:00;;;;;;;26.95;17.00;;;;;;;5.92;65.87;98575.56;12774178;23;20019;-83
2023/04/09 01:45:22;;;;;;;24.73;16.08;;;;;;;5.94;66.01;98570.22;12778893;23;20005;-82
2023/04/09 01:50:44;;;;;;;23.13;14.93;;;;;;;5.91;65.68;98570.56;12799417;23;20005;-83
2023/04/09 01:56:07;;;;;;;26.15;16.52;;;;;;;5.89;65.81;98562.75;12799312;23;20001;-83
2023/04/09 02:01:32;;;;;;;25.08;16.70;;;;;;;5.92;65.72;98564.47;12818283;23;20056;-83
2023/04/09 02:07:02;;;;;;;24.80;15.68;;;;;;;5.93;66.07;98567.97;12818540;23;20033;-83
2023/04/09 02:12:24;;;;;;;23.08;16.25;;;;;;;5.90;65.87;98558.72;12860762;23;20033;-82
2023/04/09 02:17:47;;;;;;;22.80;15.32;;;;;;;5.93;66.24;98565.22;12798595;23;20012;-83
2023/04/09 02:23:09;;;;;;;26.17;17.23;;;;;;;5.97;66.03;98571.88;12818773;23;20028;-83
2023/04/09 02:28:31;;;;;;;25.98;17.05;;;;;;;5.96;66.03;98564.13;12818565;23;20007;-82
2023/04/09 02:33:53;;;;;;;24.35;15.82;;;;;;;5.95;65.84;98555.06;12817718;23;20008;-82
2023/04/09 02:39:15;;;;;;;25.60;16.02;;;;;;;5.95;66.02;98560.59;12818203;23;20065;-83
2023/04/09 02:44:36;;;;;;;24.95;16.70;;;;;;;5.94;66.19;98559.13;12838274;23;20017;-82
2023/04/09 02:49:59;;;;;;;23.77;15.90;;;;;;;5.93;65.77;98557.63;12838127;23;20009;-82
2023/04/09 02:55:24;;;;;;;27.95;16.73;;;;;;;5.95;66.06;98563.38;12797873;23;20001;-84
2023/04/09 03:00:45;;;;;;;25.67;16.63;;;;;;;5.98;65.86;98567.84;12799889;23;20022;-83
2023/04/09 03:06:07;;;;;;;24.38;15.82;;;;;;;6.01;65.97;98563.25;12796955;23;20020;-83
2023/04/09 03:11:29;;;;;;;23.77;15.93;;;;;;;6.02;66.16;98561.94;12838346;23;20057;-83
2023/04/09 03:16:50;;;;;;;24.48;16.08;;;;;;;6.03;66.42;98544.78;12837814;23;20020;-82
2023/04/09 03:22:12;;;;;;;23.55;16.27;;;;;;;6.04;66.29;98553.81;12817418;23;20009;-83
2023/04/09 03:27:35;;;;;;;24.23;14.38;;;;;;;6.03;65.85;98544.03;12858539;23;20021;-83
2023/04/09 03:58:11;;;;;;;22.27;15.00;;;;;;;6.05;66.11;98546.25;12776154;23;20074;-83
2023/04/09 04:03:33;;;;;;;22.83;15.48;;;;;;;6.07;66.38;98536.09;12768588;23;20005;-83
2023/04/09 04:09:16;;;;;;;24.83;15.82;;;;;;;6.06;66.48;98542.94;12730898;23;20010;-82
2023/04/09 04:14:58;;;;;;;24.65;16.25;;;;;;;6.07;66.63;98546.44;12747163;23;20032;-83
2023/04/09 04:33:02;;;;;;;22.35;15.20;;;;;;;6.08;66.51;98578.41;12829108;23;20005;-83
2023/04/09 04:38:33;;;;;;;22.48;15.20;;;;;;;6.13;66.53;98580.31;12784246;23;20025;-82
2023/04/09 04:43:59;;;;;;;23.65;15.70;;;;;;;6.16;66.72;98590.31;12801093;23;20011;-84
2023/04/09 04:49:20;;;;;;;23.85;15.10;;;;;;;6.15;66.80;98583.28;12774965;23;20028;-83
2023/04/09 04:54:45;;;;;;;25.38;16.65;;;;;;;6.21;66.85;98590.16;12799484;23;20035;-83
2023/04/09 05:00:12;;;;;;;24.48;15.90;;;;;;;6.24;67.20;98588.31;12839504;23;20072;-83
2023/04/09 05:05:35;;;;;;;23.17;15.85;;;;;;;6.33;66.94;98582.28;12756749;23;20028;-82
2023/04/09 05:11:29;;;;;;;24.27;16.65;;;;;;;6.45;67.01;98589.00;12720424;23;20960;31
2023/04/09 05:16:51;;;;;;;25.48;15.75;;;;;;;6.39;67.08;98582.88;12697263;23;20022;-82
2023/04/09 05:22:17;;;;;;;24.83;16.88;;;;;;;6.45;67.15;98585.47;12679470;23;20002;-81
2023/04/09 05:27:39;;;;;;;25.20;16.38;;;;;;;6.44;66.85;98581.22;12653067;23;20005;-81
2023/04/09 05:33:01;;;;;;;24.95;16.98;;;;;;;6.40;66.80;98591.94;12676718;23;20010;-83
2023/04/09 05:38:24;;;;;;;25.77;17.23;;;;;;;6.39;66.93;98580.09;12696827;23;20005;-81
2023/04/09 05:43:50;;;;;;;27.92;18.10;;;;;;;6.47;66.87;98591.97;12697025;23;20096;-83
2023/04/09 05:49:13;;;;;;;25.73;16.70;;;;;;;6.54;66.48;98588.50;12675919;23;20010;-81
2023/04/09 05:54:37;;;;;;;29.13;17.52;;;;;;;6.59;66.77;98601.47;12666883;23;20032;-84
2023/04/09 06:00:02;;;;;;;26.60;17.40;;;;;;;6.62;66.58;98607.22;12718693;23;20005;-80
2023/04/09 06:05:36;;;;;;;;;;;;;;;6.61;67.03;98614.78;12767737;23;20021;-81
2023/04/09 06:10:58;;;;;;;25.33;16.95;;;;;;;6.59;66.86;98614.59;12834766;23;19900;-80
2023/04/09 06:16:19;;;;;;;24.50;16.80;;;;;;;6.65;66.57;98615.16;12794134;23;20325;-81
2023/04/09 06:21:41;;;;;;;27.00;17.00;;;;;;;6.71;66.60;98623.34;12794040;23;20021;-81
2023/04/09 06:27:03;;;;;;;23.77;16.88;;;;;;;6.78;66.49;98617.84;12792838;23;20009;-80
2023/04/09 06:32:25;;;;;;;25.73;16.90;;;;;;;7.02;66.54;98627.72;12793384;23;20025;-84
2023/04/09 06:44:04;;;;;;;25.23;18.52;;;;;;;7.43;65.72;98626.00;12837505;23;20011;-84
2023/04/09 06:50:04;;;;;;;25.48;17.50;;;;;;;7.43;65.42;98631.53;12791674;23;20057;31
2023/04/09 06:55:27;;;;;;;25.50;17.88;;;;;;;7.28;65.12;98632.25;12732786;23;19998;-83
2023/04/09 07:01:21;;;;;;;24.90;16.95;;;;;;;7.50;65.20;98646.75;12709952;23;20020;31
2023/04/09 07:07:16;;;;;;;25.85;17.85;;;;;;;7.73;65.11;98653.09;12658223;23;20014;-82
2023/04/09 07:12:46;;;;;;;25.55;17.63;;;;;;;8.93;65.47;98644.44;12593546;23;20050;-81
2023/04/09 07:18:54;;;;;;;23.75;17.00;;;;;;;9.66;63.37;98658.41;12615748;23;20019;-83
2023/04/09 07:24:31;;;;;;;25.73;17.02;;;;;;;9.41;62.92;98670.22;12599468;23;20074;-82
2023/04/09 07:29:57;;;;;;;25.40;18.75;;;;;;;9.59;62.09;98662.72;12625157;23;20022;-82
2023/04/09 07:35:34;;;;;;;24.80;17.40;;;;;;;10.03;62.14;98662.94;12592008;23;20018;-81
2023/04/09 07:41:27;;;;;;;23.80;17.45;;;;;;;11.89;62.10;98653.44;12611493;23;20270;-80
2023/04/09 07:47:25;;;;;;;22.77;17.60;;;;;;;13.65;59.87;98656.50;12598611;23;20014;-80
2023/04/09 07:53:12;;;;;;;23.52;18.20;;;;;;;13.01;56.21;98655.41;12587030;23;20030;-79
2023/04/09 07:58:38;;;;;;;24.95;17.83;;;;;;;11.70;55.64;98656.13;12586590;23;20101;-80
2023/04/09 08:04:00;;;;;;;24.92;18.02;;;;;;;10.67;57.39;98659.81;12608437;23;20315;-78
2023/04/09 08:09:21;;;;;;;26.60;18.67;;;;;;;10.13;58.59;98674.22;12631321;23;20074;-78
2023/04/09 08:14:43;;;;;;;26.15;18.42;;;;;;;9.84;59.30;98679.44;12614609;23;20033;-81
2023/04/09 08:20:05;;;;;;;25.70;18.73;;;;;;;10.01;59.60;98673.94;12650023;23;20006;-78
2023/04/09 08:25:26;;;;;;;24.75;17.33;;;;;;;10.79;58.66;98683.13;12609223;23;20058;-78
2023/04/09 08:30:47;;;;;;;24.65;18.75;;;;;;;17.48;61.85;98677.63;12589934;23;20025;-88
2023/04/09 08:36:08;;;;;;;17.95;15.98;;;;;;;26.19;43.95;98664.50;12535858;23;20019;-79
2023/04/09 08:41:29;;;;;;;18.02;15.23;;;;;;;27.58;36.71;98671.25;12577609;23;20377;-79
2023/04/09 08:46:50;;;;;;;17.23;15.52;;;;;;;27.56;36.03;98679.84;12597647;23;20027;-79
2023/04/09 08:52:10;;;;;;;17.05;14.82;;;;;;;25.28;35.32;98680.34;12578471;23;20025;-79
2023/04/09 08:57:39;;;;;;;17.55;15.75;;;;;;;23.75;32.07;98681.88;12579427;23;20397;-79
2023/04/09 09:03:07;;;;;;;17.63;14.93;;;;;;;23.82;31.74;98679.91;12577903;23;20078;-79
2023/04/09 09:08:29;;;;;;;17.83;15.93;;;;;;;22.41;32.54;98672.44;12579563;23;20445;-79
2023/04/09 09:13:56;;;;;;;17.60;15.30;;;;;;;27.11;29.07;98669.81;12578658;23;20018;-82
2023/04/09 09:19:23;;;;;;;17.58;15.15;;;;;;;26.01;27.13;98675.56;12598781;23;20689;-81
2023/04/09 09:24:48;;;;;;;17.27;15.57;;;;;;;30.30;20.24;98674.56;12598518;23;20501;-82
2023/04/09 09:30:20;;;;;;;15.57;14.07;;;;;;;29.92;22.05;98678.72;12559547;23;20019;-82
2023/04/09 09:35:48;;;;;;;15.60;14.10;;;;;;;28.93;20.43;98684.44;12598507;23;20492;-82
2023/04/09 09:41:15;;;;;;;15.25;13.85;;;;;;;26.19;22.36;98675.97;12577940;23;20025;-82
2023/04/09 09:46:38;;;;;;;15.35;13.45;;;;;;;25.81;22.94;98679.44;12578235;23;20018;-82
2023/04/09 09:51:59;;;;;;;15.73;14.23;;;;;;;30.99;22.45;98678.38;12618171;23;20019;-82
2023/04/09 09:57:22;;;;;;;13.38;12.07;;;;;;;36.64;17.54;98671.00;12578035;23;20019;-82
2023/04/09 10:02:47;;;;;;;13.43;12.13;;;;;;;36.36;15.64;98665.84;12557587;23;20022;-82
2023/04/09 10:08:08;;;;;;;13.55;12.35;;;;;;;36.47;14.42;98666.31;12577391;23;20045;-82
2023/04/09 10:13:55;;;;;;;14.40;13.05;;;;;;;32.97;14.03;98666.25;12553483;23;20507;-80
2023/04/09 10:19:16;;;;;;;14.02;12.73;;;;;;;30.00;16.11;98664.34;12596635;23;20018;-82
2023/04/09 10:24:37;;;;;;;15.90;14.25;;;;;;;27.25;17.90;98650.00;12577420;23;20054;-79
2023/04/09 10:29:59;;;;;;;;;;;;;;;26.75;19.19;98652.72;12538242;23;20018;-80
2023/04/09 10:35:24;;;;;;;15.95;14.38;;;;;;;28.51;18.25;98645.22;12597600;23;19924;-82
2023/04/09 10:40:49;;;;;;;15.73;14.05;;;;;;;27.16;18.82;98633.38;12577217;23;20038;-80
2023/04/09 10:46:30;;;;;;;15.82;14.07;;;;;;;24.49;21.46;98645.50;12577496;23;20026;-79
2023/04/09 10:51:51;;;;;;;13.63;12.30;;;;;;;23.94;21.23;98640.38;12576682;23;20026;-79
2023/04/09 10:57:12;;;;;;;;;;;;;;;24.48;22.26;98637.59;12577141;23;20029;-79
2023/04/09 11:02:36;;;;;;;14.50;13.00;;;;;;;22.64;22.56;98622.72;12576712;23;19941;-80
2023/04/09 11:08:02;;;;;;;15.98;13.77;;;;;;;20.57;26.24;98633.34;12638143;23;20089;-80
2023/04/09 11:13:23;;;;;;;16.30;14.52;;;;;;;20.07;25.92;98622.59;12595787;23;20098;-80
2023/04/09 11:18:44;;;;;;;16.17;14.35;;;;;;;18.62;27.50;98621.44;12596080;23;20026;-80
2023/04/09 11:24:05;;;;;;;15.60;13.25;;;;;;;18.70;28.03;98626.78;12596505;23;20018;-81
2023/04/09 11:29:26;;;;;;;16.90;14.18;;;;;;;18.58;27.99;98627.63;12576589;23;20049;-81
2023/04/09 11:34:46;;;;;;;20.23;15.93;;;;;;;17.48;31.03;98617.63;12575876;23;20015;-81
2023/04/09 11:40:31;;;;;;;18.90;15.30;;;;;;;16.38;33.07;98626.22;12556048;23;20022;-80
2023/04/09 11:45:52;;;;;;;18.00;14.20;;;;;;;15.62;32.00;98618.16;12559681;23;20034;-81
2023/04/09 11:51:12;;;;;;;17.13;13.50;;;;;;;14.98;33.43;98620.44;12558516;23;20018;-79
2023/04/09 11:56:35;;;;;;;20.00;14.05;;;;;;;14.45;35.77;98617.72;12587279;23;20438;-79
2023/04/09 12:01:59;;;;;;;22.00;14.13;;;;;;;14.02;36.33;98620.47;12593551;23;20022;-79
2023/04/09 12:07:21;;;;;;;20.08;15.07;;;;;;;13.78;37.87;98620.88;12569640;23;20049;-79
2023/04/09 12:12:43;;;;;;;18.20;14.63;;;;;;;13.46;40.40;98626.44;12587261;23;20018;-80
2023/04/09 12:18:07;;;;;;;19.38;14.25;;;;;;;13.20;41.26;98632.25;12606078;23;20022;-80
2023/04/09 12:23:30;;;;;;;16.77;12.93;;;;;;;13.10;42.07;98624.56;12564999;23;20045;-80
2023/04/09 12:28:51;;;;;;;19.27;14.13;;;;;;;13.32;43.29;98635.94;12551796;23;20457;-80
2023/04/09 12:34:12;;;;;;;19.13;14.02;;;;;;;13.35;43.44;98626.31;12597026;23;20031;-80
2023/04/09 12:39:33;;;;;;;16.98;13.38;;;;;;;13.21;43.85;98625.31;12616062;23;20081;-80
2023/04/09 12:44:54;;;;;;;18.85;13.77;;;;;;;13.22;44.14;98618.38;12613958;23;20022;-80
2023/04/09 12:50:15;;;;;;;18.33;13.98;;;;;;;13.00;45.28;98623.81;12591267;23;20073;-80
2023/04/09 12:55:36;;;;;;;18.45;14.27;;;;;;;12.38;46.24;98617.94;12572707;23;20046;-80
2023/04/09 13:00:57;;;;;;;21.10;15.43;;;;;;;12.50;47.09;98618.09;12594779;23;20051;-80
2023/04/09 13:06:18;;;;;;;19.05;15.07;;;;;;;12.73;47.16;98621.19;12593201;23;20018;-80
2023/04/09 13:11:39;;;;;;;21.23;15.52;;;;;;;12.88;47.05;98615.28;12607138;23;20378;-80
2023/04/09 13:17:00;;;;;;;19.65;15.20;;;;;;;12.76;47.74;98624.88;12591023;23;20078;-80
2023/04/09 13:22:21;;;;;;;21.60;16.20;;;;;;;12.68;48.60;98619.41;12594598;23;20026;-80
2023/04/09 13:27:42;;;;;;;23.70;16.80;;;;;;;12.64;48.66;98621.91;12616143;23;20018;-81
2023/04/09 13:33:03;;;;;;;21.27;15.70;;;;;;;12.63;48.39;98612.03;12624392;23;20078;-81
2023/04/09 13:38:23;;;;;;;20.10;15.60;;;;;;;12.93;48.08;98615.56;12630125;23;20027;-81
2023/04/09 13:43:44;;;;;;;21.13;16.15;;;;;;;13.24;48.31;98605.25;12592538;23;20338;-81
2023/04/09 13:49:05;;;;;;;20.83;16.23;;;;;;;13.75;47.55;98615.13;12627693;23;20026;-81
2023/04/09 13:54:26;;;;;;;19.77;15.90;;;;;;;13.59;47.04;98616.06;12608164;23;20025;-81
2023/04/09 13:59:47;;;;;;;22.63;16.75;;;;;;;13.71;47.30;98623.28;12587471;23;20030;-81
2023/04/09 14:05:08;;;;;;;21.30;16.52;;;;;;;13.98;47.01;98613.81;12619401;23;20022;-81
2023/04/09 14:10:29;;;;;;;23.17;17.33;;;;;;;14.17;46.21;98615.78;12607461;23;20018;-81
2023/04/09 14:15:50;;;;;;;20.83;16.42;;;;;;;14.19;46.56;98613.16;12627293;23;20022;-81
2023/04/09 14:21:11;;;;;;;21.85;16.20;;;;;;;14.20;46.53;98618.16;12607114;23;20357;-81
2023/04/09 14:26:32;;;;;;;22.40;15.50;;;;;;;14.17;46.20;98615.78;12626531;23;20326;-81
2023/04/09 14:31:53;;;;;;;19.83;15.20;;;;;;;14.20;46.46;98603.38;12626741;23;20019;-80
2023/04/09 14:37:17;;;;;;;19.65;15.18;;;;;;;14.45;46.15;98606.47;12625722;23;20022;-81
2023/04/09 14:42:39;;;;;;;21.67;15.90;;;;;;;14.44;46.03;98599.38;12650112;23;20025;-80
2023/04/09 14:48:00;;;;;;;23.02;16.08;;;;;;;14.39;45.70;98603.25;12618064;23;20034;-80
2023/04/09 14:53:21;;;;;;;19.77;15.57;;;;;;;14.25;45.87;98594.63;12658201;23;20019;-80
2023/04/09 14:58:41;;;;;;;20.92;16.08;;;;;;;14.20;45.64;98603.38;12618097;23;20026;-81
2023/04/09 15:04:03;;;;;;;22.08;16.08;;;;;;;14.04;45.74;98591.78;12637705;23;20030;-80
2023/04/09 15:09:24;;;;;;;22.60;15.80;;;;;;;14.35;45.92;98591.00;12598241;23;20018;-80
2023/04/09 15:14:45;;;;;;;19.13;14.70;;;;;;;14.34;45.26;98590.28;12577757;23;20080;-80
2023/04/09 15:20:06;;;;;;;20.98;15.52;;;;;;;14.09;45.43;98587.19;12595920;23;20372;-81
2023/04/09 15:25:27;;;;;;;19.75;14.88;;;;;;;13.87;45.64;98587.16;12596262;23;20025;-80
2023/04/09 15:30:48;;;;;;;18.75;14.63;;;;;;;13.90;45.65;98585.22;12577465;23;20018;-80
2023/04/09 15:36:09;;;;;;;13.63;10.75;;;;;;;13.85;45.18;98581.41;12616476;23;20062;-81
2023/04/09 15:41:31;;;;;;;15.35;12.02;;;;;;;13.80;45.09;98582.47;12619492;23;20338;-81
2023/04/09 15:46:52;;;;;;;17.38;12.60;;;;;;;13.51;45.04;98582.59;12618365;23;20018;-80
2023/04/09 15:52:12;;;;;;;17.13;12.65;;;;;;;13.30;45.20;98580.44;12596641;23;20014;-80
2023/04/09 15:57:33;;;;;;;17.10;12.63;;;;;;;13.09;45.24;98577.50;12576130;23;20039;-80
2023/04/09 16:02:54;;;;;;;15.68;12.10;;;;;;;12.81;44.96;98581.81;12566487;23;20030;-80
2023/04/09 16:08:14;;;;;;;16.98;11.57;;;;;;;12.61;44.84;98570.63;12570478;23;20441;-80
2023/04/09 16:13:36;;;;;;;15.27;11.05;;;;;;;12.55;44.95;98586.25;12589040;23;20023;-80
2023/04/09 16:18:57;;;;;;;12.98;10.30;;;;;;;12.42;45.06;98572.69;12609702;23;20023;-80
2023/04/09 16:24:18;;;;;;;14.63;10.77;;;;;;;12.25;45.00;98576.34;12569967;23;20022;-80
2023/04/09 16:29:39;;;;;;;17.20;11.52;;;;;;;12.29;45.20;98574.59;12588158;23;20018;-80
2023/04/09 16:35:01;;;;;;;16.05;11.20;;;;;;;12.17;45.02;98578.56;12588840;23;20014;-80
2023/04/09 16:40:23;;;;;;;13.40;9.73;;;;;;;12.02;45.03;98577.47;12589410;23;20022;-80
2023/04/09 16:45:44;;;;;;;20.25;12.43;;;;;;;11.92;45.30;98576.00;12570148;23;20322;-80
2023/04/09 16:51:05;;;;;;;15.85;11.60;;;;;;;11.89;45.23;98577.16;12569130;23;20019;-80
2023/04/09 16:56:26;;;;;;;17.70;11.20;;;;;;;11.82;45.36;98583.63;12608439;23;20027;-80
2023/04/09 17:01:47;;;;;;;14.80;10.45;;;;;;;11.78;45.05;98580.50;12609145;23;20434;-79
2023/04/09 17:07:09;;;;;;;15.15;11.23;;;;;;;11.60;45.65;98574.97;12569097;23;20022;-80
2023/04/09 17:12:30;;;;;;;16.23;10.82;;;;;;;11.56;45.76;98585.84;12588400;23;20022;-80
2023/04/09 17:17:52;;;;;;;16.02;11.90;;;;;;;11.49;45.59;98597.91;12549458;23;20315;-80
2023/04/09 17:23:13;;;;;;;18.05;12.73;;;;;;;11.38;46.16;98590.75;12610611;23;20022;-79
2023/04/09 17:28:34;;;;;;;18.38;13.40;;;;;;;11.32;45.95;98595.16;12597394;23;20025;-78
2023/04/09 17:33:55;;;;;;;17.67;12.25;;;;;;;11.18;46.15;98608.75;12602647;23;20389;-77
2023/04/09 17:39:16;;;;;;;20.15;14.05;;;;;;;11.05;46.22;98618.22;12556302;23;20023;-77
2023/04/09 17:44:45;;;;;;;17.63;13.00;;;;;;;10.97;47.68;98622.44;12540585;23;20345;-81
2023/04/09 17:50:24;;;;;;;20.17;13.43;;;;;;;10.79;49.07;98633.59;12691678;23;20083;-84
2023/04/09 17:56:14;;;;;;;19.33;13.50;;;;;;;10.52;48.70;98636.34;12679132;23;20022;-86
2023/04/09 18:08:39;;;;;;;;;;;;;;;;;;;;;
2023/04/09 18:14:31;;;;;;;14.75;10.00;;;;;;;9.85;52.91;98655.13;12778762;23;20108;-78
2023/04/09 18:19:53;;;;;;;13.45;8.95;;;;;;;9.61;57.35;98662.13;12750803;23;20110;-80
2023/04/09 18:25:14;;;;;;;12.98;8.93;;;;;;;9.52;56.22;98649.56;12741682;23;20024;-77
2023/04/09 18:30:37;;;;;;;13.35;8.45;;;;;;;9.34;58.58;98657.06;12767972;23;20013;-80
2023/04/09 18:36:00;;;;;;;13.40;7.97;;;;;;;9.41;56.99;98663.91;12806677;23;20013;-79
2023/04/09 18:41:24;;;;;;;11.55;7.88;;;;;;;9.48;56.88;98665.19;12776800;23;20017;-78
2023/04/09 18:46:46;;;;;;;10.75;7.93;;;;;;;9.55;56.72;98662.34;12737045;23;20522;-79
2023/04/09 18:52:08;;;;;;;10.60;7.93;;;;;;;9.62;57.60;98660.81;12761866;23;20028;-78
2023/04/09 18:57:32;;;;;;;13.43;8.55;;;;;;;9.69;58.23;98654.47;12760665;23;20017;-78
2023/04/09 19:02:53;;;;;;;13.88;9.73;;;;;;;9.72;58.40;98654.06;12759732;23;20044;-78
2023/04/09 19:08:15;;;;;;;13.52;9.43;;;;;;;9.70;58.92;98650.38;12761647;23;20072;-79
2023/04/09 19:13:36;;;;;;;13.18;9.55;;;;;;;9.72;58.81;98656.13;12783310;23;20043;-79
2023/04/09 19:18:57;;;;;;;12.93;8.75;;;;;;;9.73;58.97;98660.38;12741442;23;20056;-79
2023/04/09 19:24:18;;;;;;;12.52;9.38;;;;;;;9.68;59.28;98661.34;12723559;23;20027;-76
2023/04/09 19:29:39;;;;;;;12.75;8.52;;;;;;;9.66;59.99;98652.81;12780318;23;20028;-82
2023/04/09 19:35:02;;;;;;;15.07;10.35;;;;;;;9.67;59.86;98648.72;12795802;23;20439;-79
2023/04/09 19:40:24;;;;;;;13.73;9.85;;;;;;;9.65;59.64;98643.72;12747645;23;20027;-79
2023/04/09 19:45:45;;;;;;;16.30;10.13;;;;;;;9.65;60.33;98645.75;12789348;23;20450;-78
2023/04/09 19:51:07;;;;;;;14.68;9.10;;;;;;;9.57;60.35;98642.28;12756931;23;20052;-80
2023/04/09 19:56:28;;;;;;;16.35;10.98;;;;;;;9.57;60.94;98643.03;12759816;23;20020;-79
2023/04/09 20:01:49;;;;;;;13.00;10.13;;;;;;;9.52;61.23;98646.03;12762844;23;20017;-79
2023/04/09 20:07:10;;;;;;;14.95;9.75;;;;;;;9.53;61.27;98644.72;12784379;23;20451;-78
2023/04/09 20:12:31;;;;;;;17.10;10.85;;;;;;;9.52;61.27;98643.97;12760530;23;20312;-80
2023/04/09 20:17:52;;;;;;;12.45;9.40;;;;;;;9.55;61.57;98647.66;12756870;23;20028;-79
2023/04/09 20:23:15;;;;;;;12.43;8.70;;;;;;;9.56;61.80;98640.81;12778935;23;20487;-77
2023/04/09 20:28:40;;;;;;;11.13;8.23;;;;;;;9.57;61.58;98651.38;12746065;23;20021;-77
2023/04/09 20:34:29;;;;;;;12.23;8.27;;;;;;;9.58;61.45;98655.66;12750267;23;20440;-77
2023/04/09 20:39:50;;;;;;;11.38;8.35;;;;;;;9.59;61.75;98650.81;12722649;23;20024;-76
2023/04/09 20:45:11;;;;;;;9.52;7.70;;;;;;;9.55;61.87;98644.88;12745738;23;20043;-78
2023/04/09 20:50:32;;;;;;;9.38;7.53;;;;;;;9.53;61.54;98644.72;12785569;23;20017;-79
2023/04/09 20:55:53;;;;;;;10.57;7.85;;;;;;;9.52;61.69;98641.19;12797221;23;20020;-81
2023/04/09 21:01:15;;;;;;;10.00;7.57;;;;;;;9.47;61.98;98642.16;12781898;23;20013;-79
2023/04/09 21:07:05;;;;;;;15.65;10.52;;;;;;;9.45;62.56;98642.72;12769074;23;20308;-79
2023/04/09 21:12:28;;;;;;;16.27;11.63;;;;;;;9.48;62.80;98652.00;12718435;23;20016;-78
2023/04/09 21:17:49;;;;;;;26.05;15.77;;;;;;;9.44;63.32;98652.38;12763175;23;20021;-78
2023/04/09 21:23:11;;;;;;;20.45;13.43;;;;;;;9.42;63.43;98652.22;12723886;23;20028;-78
2023/04/09 21:28:32;;;;;;;26.05;15.75;;;;;;;9.37;63.88;98653.19;12746307;23;20024;-78
2023/04/09 21:33:53;;;;;;;17.15;11.80;;;;;;;9.38;63.48;98656.69;12762308;23;20436;-78
2023/04/09 21:39:14;;;;;;;13.48;9.57;;;;;;;9.38;63.83;98654.66;12717243;23;20540;-78
2023/04/09 21:44:35;;;;;;;12.32;8.55;;;;;;;9.32;63.93;98656.16;12724551;23;20024;-78
2023/04/09 21:50:24;;;;;;;15.00;10.15;;;;;;;9.32;64.15;98659.69;12780489;23;20390;-78
2023/04/09 21:55:46;;;;;;;13.60;10.00;;;;;;;9.37;64.49;98661.53;12742588;23;20420;-78
2023/04/09 22:01:06;;;;;;;12.45;8.98;;;;;;;9.35;64.40;98671.75;12760314;23;20032;-78
2023/04/09 22:06:44;;;;;;;13.38;10.13;;;;;;;9.35;64.33;98666.91;12746524;23;20025;-78
2023/04/09 22:12:06;;;;;;;13.83;10.23;;;;;;;9.34;64.66;98673.78;12680846;23;20013;-78
2023/04/09 22:17:26;;;;;;;11.32;8.90;;;;;;;9.30;64.56;98681.06;12684916;23;20024;-78
2023/04/09 22:22:47;;;;;;;13.52;10.00;;;;;;;9.29;65.09;98677.53;12703634;23;20080;-78
2023/04/09 22:28:08;;;;;;;13.82;10.32;;;;;;;9.31;64.62;98680.50;12720690;23;20455;-78
2023/04/09 22:33:30;;;;;;;13.38;10.07;;;;;;;9.29;64.80;98674.75;12680767;23;20021;-79
2023/04/09 22:38:51;;;;;;;14.55;10.30;;;;;;;9.25;64.94;98679.22;12683161;23;20017;-78
2023/04/09 22:44:12;;;;;;;16.35;11.48;;;;;;;9.22;65.47;98686.66;12690008;23;20017;-79
2023/04/09 22:49:34;;;;;;;17.20;12.13;;;;;;;9.22;65.75;98677.56;12751108;23;20069;-79
2023/04/09 22:54:55;;;;;;;17.25;11.68;;;;;;;9.24;65.31;98683.31;12698565;23;20332;-78
2023/04/09 23:00:16;;;;;;;15.32;11.20;;;;;;;9.20;65.85;98675.34;12678705;23;20028;-78
2023/04/09 23:05:37;;;;;;;14.43;10.52;;;;;;;9.21;65.80;98681.66;12654014;23;20025;-79
2023/04/09 23:10:58;;;;;;;16.27;11.27;;;;;;;9.14;65.76;98674.81;12740427;23;20029;-78
2023/04/09 23:16:18;;;;;;;15.32;11.57;;;;;;;9.14;66.38;98669.25;12779353;23;20013;-78
2023/04/09 23:21:39;;;;;;;16.30;11.38;;;;;;;9.14;66.44;98680.38;12759508;23;20028;-78
2023/04/09 23:27:01;;;;;;;15.93;11.85;;;;;;;9.13;66.20;98670.56;12758939;23;20021;-78
2023/04/09 23:32:22;;;;;;;15.27;11.27;;;;;;;9.09;66.89;98678.56;12759845;23;20016;-78
2023/04/09 23:37:43;;;;;;;16.38;11.45;;;;;;;9.06;66.39;98680.41;12779731;23;20360;-79
2023/04/09 23:43:03;;;;;;;14.40;10.70;;;;;;;9.09;66.86;98678.56;12759494;23;20027;-78
2023/04/09 23:48:24;;;;;;;14.52;10.60;;;;;;;9.03;66.70;98678.00;12758786;23;20021;-78
2023/04/09 23:53:45;;;;;;;14.88;10.80;;;;;;;9.00;66.70;98676.38;12779901;23;20021;-78
2023/04/09 23:59:06;;;;;;;18.33;10.63;;;;;;;9.02;66.89;98663.34;12758814;23;20021;-78
